sensor_id;sensor_type;location;lat;lon;timestamp;pressure;altitude;pressure_sealevel;temperature;humidity
13581;BME280;6861;46.170;7.222;2023-02-20T20:52:34;96723.56;;;13.82;40.10
13581;BME280;6861;46.170;7.222;2023-02-20T20:55:03;96721.50;;;13.38;41.27
13581;BME280;6861;46.170;7.222;2023-02-20T20:57:32;96723.03;;;12.93;41.55
13581;BME280;6861;46.170;7.222;2023-02-20T21:00:03;96726.63;;;12.57;42.15
13581;BME280;6861;46.170;7.222;2023-02-20T21:02:31;96728.09;;;12.27;42.01
13581;BME280;6861;46.170;7.222;2023-02-20T21:04:59;96726.44;;;12.06;42.36
13581;BME280;6861;46.170;7.222;2023-02-20T21:07:38;96724.47;;;11.81;42.77
13581;BME280;6861;46.170;7.222;2023-02-20T21:10:07;96723.53;;;11.65;43.29
13581;BME280;6861;46.170;7.222;2023-02-20T21:12:35;96726.84;;;11.50;43.25
13581;BME280;6861;46.170;7.222;2023-02-20T21:15:05;96723.31;;;11.35;43.67
13581;BME280;6861;46.170;7.222;2023-02-20T21:17:33;96721.59;;;11.13;44.33
13581;BME280;6861;46.170;7.222;2023-02-20T21:20:03;96726.66;;;10.93;44.63
13581;BME280;6861;46.170;7.222;2023-02-20T21:22:33;96725.97;;;10.76;45.04
13581;BME280;6861;46.170;7.222;2023-02-20T21:25:08;96727.94;;;10.64;45.30
13581;BME280;6861;46.170;7.222;2023-02-20T21:27:39;96714.47;;;10.55;45.66
13581;BME280;6861;46.170;7.222;2023-02-20T21:30:08;96715.22;;;10.50;45.21
13581;BME280;6861;46.170;7.222;2023-02-20T21:32:36;96721.50;;;10.49;45.48
13581;BME280;6861;46.170;7.222;2023-02-20T21:35:05;96710.94;;;10.39;45.45
13581;BME280;6861;46.170;7.222;2023-02-20T21:37:33;96717.03;;;10.50;45.28
13581;BME280;6861;46.170;7.222;2023-02-20T21:40:01;96724.41;;;10.53;45.41
13581;BME280;6861;46.170;7.222;2023-02-20T21:42:31;96720.03;;;10.59;45.44
13581;BME280;6861;46.170;7.222;2023-02-20T21:45:17;96719.78;;;10.60;45.48
13581;BME280;6861;46.170;7.222;2023-02-20T21:47:45;96719.53;;;10.62;45.46
13581;BME280;6861;46.170;7.222;2023-02-20T21:50:15;96713.50;;;10.61;45.58
13581;BME280;6861;46.170;7.222;2023-02-20T21:52:44;96714.47;;;10.55;45.59
13581;BME280;6861;46.170;7.222;2023-02-20T21:55:14;96713.59;;;10.44;45.81
13581;BME280;6861;46.170;7.222;2023-02-20T21:57:44;96719.75;;;10.33;46.19
13581;BME280;6861;46.170;7.222;2023-02-20T22:00:14;96713.38;;;10.24;45.97
13581;BME280;6861;46.170;7.222;2023-02-20T22:02:41;96713.78;;;10.16;46.38
13581;BME280;6861;46.170;7.222;2023-02-20T22:05:09;96716.88;;;10.13;46.67
13581;BME280;6861;46.170;7.222;2023-02-20T22:07:36;96719.91;;;10.05;46.93
13581;BME280;6861;46.170;7.222;2023-02-20T22:10:23;96713.81;;;9.99;47.13
13581;BME280;6861;46.170;7.222;2023-02-20T22:13:10;96710.59;;;9.92;47.33
13581;BME280;6861;46.170;7.222;2023-02-20T22:15:56;96708.16;;;9.85;47.08
13581;BME280;6861;46.170;7.222;2023-02-20T22:18:41;96710.44;;;9.82;47.29
13581;BME280;6861;46.170;7.222;2023-02-20T22:21:27;96708.31;;;9.79;47.52
13581;BME280;6861;46.170;7.222;2023-02-20T22:24:13;96711.72;;;9.79;47.63
13581;BME280;6861;46.170;7.222;2023-02-20T22:27:04;96713.78;;;9.77;47.43
13581;BME280;6861;46.170;7.222;2023-02-20T22:29:51;96715.28;;;9.73;47.40
13581;BME280;6861;46.170;7.222;2023-02-20T22:32:38;96719.34;;;9.64;47.80
13581;BME280;6861;46.170;7.222;2023-02-20T22:35:23;96720.78;;;9.55;47.84
13581;BME280;6861;46.170;7.222;2023-02-20T22:38:09;96702.94;;;9.47;47.79
13581;BME280;6861;46.170;7.222;2023-02-20T22:40:54;96717.50;;;9.43;48.28
13581;BME280;6861;46.170;7.222;2023-02-20T22:43:40;96710.06;;;9.35;48.23
13581;BME280;6861;46.170;7.222;2023-02-20T22:46:26;96714.16;;;9.31;48.02
13581;BME280;6861;46.170;7.222;2023-02-20T22:49:12;96702.13;;;9.30;48.33
13581;BME280;6861;46.170;7.222;2023-02-20T22:51:57;96705.78;;;9.29;48.44
13581;BME280;6861;46.170;7.222;2023-02-20T22:54:43;96699.75;;;9.28;48.16
13581;BME280;6861;46.170;7.222;2023-02-20T22:57:31;96690.59;;;9.26;48.55
13581;BME280;6861;46.170;7.222;2023-02-20T23:00:17;96695.81;;;9.26;48.49
13581;BME280;6861;46.170;7.222;2023-02-20T23:03:04;96692.16;;;9.27;48.54
13581;BME280;6861;46.170;7.222;2023-02-20T23:05:49;96696.59;;;9.26;48.78
13581;BME280;6861;46.170;7.222;2023-02-20T23:08:45;96686.94;;;9.27;48.76
13581;BME280;6861;46.170;7.222;2023-02-20T23:11:33;96695.00;;;9.25;49.09
13581;BME280;6861;46.170;7.222;2023-02-20T23:14:18;96684.72;;;9.18;49.25
13581;BME280;6861;46.170;7.222;2023-02-20T23:17:04;96692.00;;;9.16;49.21
13581;BME280;6861;46.170;7.222;2023-02-20T23:20:04;96689.31;;;9.11;49.37
13581;BME280;6861;46.170;7.222;2023-02-20T23:22:49;96690.72;;;9.02;49.25
13581;BME280;6861;46.170;7.222;2023-02-20T23:25:35;96686.94;;;8.93;49.90
13581;BME280;6861;46.170;7.222;2023-02-20T23:28:20;96693.72;;;8.94;49.39
13581;BME280;6861;46.170;7.222;2023-02-20T23:31:05;96688.03;;;8.97;49.11
13581;BME280;6861;46.170;7.222;2023-02-20T23:33:51;96690.19;;;9.00;49.76
13581;BME280;6861;46.170;7.222;2023-02-20T23:36:38;96686.63;;;9.06;49.27
13581;BME280;6861;46.170;7.222;2023-02-20T23:39:23;96670.72;;;9.08;49.03
13581;BME280;6861;46.170;7.222;2023-02-20T23:42:08;96681.41;;;9.06;49.82
13581;BME280;6861;46.170;7.222;2023-02-20T23:44:54;96672.53;;;9.07;49.72
13581;BME280;6861;46.170;7.222;2023-02-20T23:47:40;96677.28;;;9.10;49.25
13581;BME280;6861;46.170;7.222;2023-02-20T23:50:25;96682.03;;;9.13;49.49
13581;BME280;6861;46.170;7.222;2023-02-20T23:53:11;96682.34;;;9.17;49.15
13581;BME280;6861;46.170;7.222;2023-02-20T23:55:57;96671.13;;;9.16;49.68
13581;BME280;6861;46.170;7.222;2023-02-20T23:58:43;96666.94;;;9.15;49.71
